createdAt,value
2024-02-13T04:41:07.239Z,99839.19
2024-02-13T04:44:10.630Z,99839.19
2024-02-13T04:47:13.275Z,99861.88
2024-02-13T04:50:18.756Z,99858.97
2024-02-13T04:53:23.389Z,99857.97
2024-02-13T04:56:27.553Z,99860.16
2024-02-13T04:59:38.825Z,99862.66
2024-02-13T05:02:47.619Z,99866.78
2024-02-13T05:06:09.181Z,99867.56
2024-02-13T05:09:12.910Z,99876.34
2024-02-13T05:12:16.127Z,99889.31
2024-02-13T05:15:22.001Z,99895.37
2024-02-13T05:18:24.798Z,99909.09
2024-02-13T05:21:28.106Z,99907.53
2024-02-13T05:24:30.721Z,99909.28
2024-02-13T05:27:33.477Z,99914.41
2024-02-13T05:30:37.505Z,99915.50
2024-02-13T05:33:40.791Z,99917.41
2024-02-13T05:36:44.773Z,99920.19
2024-02-13T05:39:51.308Z,99922.03
2024-02-13T05:42:55.953Z,99931.00
2024-02-13T05:45:58.895Z,99929.38
2024-02-13T05:49:01.967Z,99938.78
2024-02-13T05:52:06.195Z,99941.44
2024-02-13T05:55:09.617Z,99950.03
2024-02-13T05:58:12.697Z,99951.88
2024-02-13T06:01:15.361Z,99964.06
2024-02-13T06:04:18.196Z,99973.62
2024-02-13T06:07:21.078Z,99975.31
2024-02-13T06:10:25.916Z,99978.25
2024-02-13T06:13:28.933Z,99984.41
2024-02-13T06:16:32.301Z,99989.50
2024-02-13T06:19:34.992Z,99998.94
2024-02-13T06:22:38.807Z,99994.13
2024-02-13T06:25:41.549Z,100006.47
2024-02-13T06:28:44.409Z,100011.44
2024-02-13T06:31:47.047Z,100011.19
2024-02-13T06:34:50.144Z,100016.31
2024-02-13T06:37:54.321Z,100021.53
2024-02-13T06:40:59.061Z,100046.06
2024-02-13T06:44:04.305Z,100045.53
2024-02-13T06:47:08.135Z,100055.91
2024-02-13T06:50:14.319Z,100066.44
2024-02-13T06:53:17.644Z,100069.91
2024-02-13T06:56:20.603Z,100067.87
2024-02-13T06:59:23.716Z,100076.50
2024-02-13T07:02:26.642Z,100069.81
2024-02-13T07:05:31.143Z,100078.69
2024-02-13T07:08:34.608Z,100076.25
2024-02-13T07:11:37.721Z,100073.31
2024-02-13T07:14:40.447Z,100074.72
2024-02-13T07:17:52.563Z,100074.25
2024-02-13T07:21:07.459Z,100087.63
2024-02-13T07:24:11.848Z,100081.53
2024-02-13T07:27:14.480Z,100087.00
2024-02-13T07:30:17.644Z,100089.94
2024-02-13T07:33:20.488Z,100096.56
2024-02-13T07:36:23.599Z,100096.62
2024-02-13T07:39:27.982Z,100101.97
2024-02-13T07:42:30.939Z,100097.56
2024-02-13T07:45:33.687Z,100104.31
2024-02-13T07:48:36.932Z,100102.13
2024-02-13T07:51:39.517Z,100099.78
2024-02-13T07:54:43.107Z,100098.25
2024-02-13T07:57:51.106Z,100100.16
2024-02-13T08:00:54.047Z,100116.13
2024-02-13T08:04:01.442Z,100118.22
2024-02-13T08:07:04.867Z,100119.88
2024-02-13T08:10:11.291Z,100130.34
2024-02-13T08:13:13.903Z,100130.97
2024-02-13T08:16:16.811Z,100129.38
2024-02-13T08:19:19.683Z,100139.72
2024-02-13T08:22:22.686Z,100135.00
2024-02-13T08:25:26.552Z,100135.78
2024-02-13T08:28:31.515Z,100142.22
2024-02-13T08:31:35.167Z,100137.28
2024-02-13T08:34:39.694Z,100144.97
2024-02-13T08:37:42.618Z,100150.72
2024-02-13T08:40:45.577Z,100150.81
2024-02-13T08:43:48.832Z,100166.00
2024-02-13T08:46:51.849Z,100156.16
2024-02-13T08:49:55.204Z,100164.81
2024-02-13T08:52:58.894Z,100158.50
2024-02-13T08:56:01.639Z,100161.38
2024-02-13T08:59:05.773Z,100158.28
2024-02-13T09:02:10.129Z,100178.59
2024-02-13T09:05:13.932Z,100181.50
2024-02-13T09:08:16.833Z,100172.03
2024-02-13T09:11:23.115Z,100179.25
2024-02-13T09:14:25.737Z,100190.25
2024-02-13T09:17:28.657Z,100182.75
2024-02-13T09:20:31.739Z,100181.81
2024-02-13T09:23:35.489Z,100193.03
2024-02-13T09:26:38.383Z,100193.37
2024-02-13T09:29:42.247Z,100197.88
2024-02-13T09:32:47.970Z,100202.06
2024-02-13T09:35:51.725Z,100203.59
2024-02-13T09:38:55.078Z,100202.50
2024-02-13T09:41:59.387Z,100208.91
2024-02-13T09:45:04.159Z,100212.25
2024-02-13T09:48:22.645Z,100206.78
2024-02-13T09:51:26.426Z,100211.75
2024-02-13T09:54:32.236Z,100217.13
2024-02-13T09:57:35.067Z,100222.84
2024-02-13T10:00:38.052Z,100222.09
2024-02-13T10:03:41.087Z,100228.66
2024-02-13T10:06:44.035Z,100223.94
2024-02-13T10:09:50.511Z,100222.84
2024-02-13T10:12:55.313Z,100226.72
2024-02-13T10:15:58.267Z,100223.69
2024-02-13T10:19:04.651Z,100216.91
2024-02-13T10:22:08.706Z,100222.50
2024-02-13T10:25:12.750Z,100217.81
2024-02-13T10:28:18.151Z,100216.91
2024-02-13T10:31:27.485Z,100223.09
2024-02-13T10:34:30.506Z,100219.78
2024-02-13T10:37:33.416Z,100222.66
2024-02-13T10:40:40.584Z,100218.72
2024-02-13T10:43:43.812Z,100225.00
2024-02-13T10:46:50.346Z,100216.34
2024-02-13T10:50:00.273Z,100208.47
2024-02-13T10:53:04.852Z,100226.56
2024-02-13T10:56:09.622Z,100224.41
2024-02-13T10:59:12.974Z,100224.91
2024-02-13T11:02:16.578Z,100225.22
2024-02-13T11:05:20.507Z,100221.72
2024-02-13T11:08:24.286Z,100231.06
2024-02-13T11:11:29.265Z,100227.13
2024-02-13T11:14:32.129Z,100231.62
2024-02-13T11:17:43.576Z,100251.84
2024-02-13T11:20:51.614Z,100236.09
2024-02-13T11:24:01.642Z,100245.53
2024-02-13T11:27:17.003Z,100232.34
2024-02-13T11:30:29.501Z,100247.91
2024-02-13T11:33:32.293Z,100235.66
2024-02-13T11:36:36.498Z,100251.50
2024-02-13T11:39:42.449Z,100238.47
2024-02-13T11:42:45.872Z,100241.41
2024-02-13T11:45:48.952Z,100236.16
2024-02-13T11:48:54.311Z,100238.56
2024-02-13T11:51:57.601Z,100234.44
2024-02-13T11:55:02.724Z,100236.97
2024-02-13T11:58:07.442Z,100236.63
2024-02-13T12:01:13.584Z,100231.13
2024-02-13T12:04:21.019Z,100237.53
2024-02-13T12:07:24.061Z,100230.84
2024-02-13T12:10:27.306Z,100237.84
2024-02-13T12:13:33.921Z,100241.94
2024-02-13T12:16:38.325Z,100232.72
2024-02-13T12:19:41.886Z,100238.09
2024-02-13T12:22:47.717Z,100237.50
2024-02-13T12:26:01.868Z,100249.53
2024-02-13T12:29:16.144Z,100243.25
2024-02-13T12:32:19.470Z,100250.19
2024-02-13T12:35:33.437Z,100254.66
2024-02-13T12:38:39.602Z,100246.19
2024-02-13T12:41:42.662Z,100242.47
2024-02-13T12:44:45.515Z,100250.31
2024-02-13T12:47:49.226Z,100259.69
2024-02-13T12:50:52.904Z,100254.16
2024-02-13T12:53:55.938Z,100252.31
2024-02-13T12:56:58.567Z,100258.03
2024-02-13T13:00:01.499Z,100250.09
2024-02-13T13:03:05.799Z,100262.34
2024-02-13T13:06:12.681Z,100265.91
2024-02-13T13:09:27.504Z,100260.72
2024-02-13T13:12:31.843Z,100268.50
2024-02-13T13:15:35.414Z,100279.62
2024-02-13T13:18:40.035Z,100285.69
2024-02-13T13:21:43.457Z,100292.00
2024-02-13T13:24:46.558Z,100287.41
2024-02-13T13:27:50.294Z,100289.97
2024-02-13T13:30:58.802Z,100295.41
2024-02-13T13:34:07.194Z,100300.06
2024-02-13T13:37:11.758Z,100306.94
2024-02-13T13:40:18.071Z,100313.25
2024-02-13T13:43:21.080Z,100310.03
2024-02-13T13:46:25.499Z,100318.34
2024-02-13T13:49:28.535Z,100318.87
2024-02-13T13:52:31.283Z,100307.66
2024-02-13T13:55:34.274Z,100305.47
2024-02-13T13:58:37.169Z,100321.59
2024-02-13T14:01:40.039Z,100308.56
2024-02-13T14:04:42.801Z,100307.94
2024-02-13T14:07:45.256Z,100311.00
2024-02-13T14:10:49.869Z,100309.41
2024-02-13T14:13:53.675Z,100320.00
2024-02-13T14:16:56.746Z,100314.81
2024-02-13T14:19:59.421Z,100327.03
2024-02-13T14:23:02.493Z,100321.81
2024-02-13T14:26:05.419Z,100324.72
2024-02-13T14:29:12.281Z,100324.81
2024-02-13T14:32:15.899Z,100336.97
2024-02-13T14:35:19.332Z,100336.09
2024-02-13T14:38:22.523Z,100331.34
2024-02-13T14:41:26.206Z,100326.34
2024-02-13T14:44:28.986Z,100334.06
2024-02-13T14:47:32.890Z,100344.06
2024-02-13T14:50:36.159Z,100336.81
2024-02-13T14:53:39.341Z,100345.00
2024-02-13T14:56:43.033Z,100350.69
2024-02-13T14:59:46.505Z,100346.81
2024-02-13T15:02:49.366Z,100364.59
2024-02-13T15:05:53.560Z,100364.72
2024-02-13T15:08:56.845Z,100362.28
2024-02-13T15:12:00.769Z,100366.09
2024-02-13T15:15:05.888Z,100367.44
2024-02-13T15:18:08.977Z,100371.09
2024-02-13T15:21:13.637Z,100387.19
2024-02-13T15:24:19.759Z,100381.75
2024-02-13T15:27:22.630Z,100390.91
2024-02-13T15:30:26.882Z,100392.28
2024-02-13T15:33:30.283Z,100394.28
2024-02-13T15:36:34.089Z,100409.97
2024-02-13T15:39:55.815Z,100406.91
2024-02-13T15:43:17.569Z,100404.31
2024-02-13T15:46:55.568Z,100417.19
2024-02-13T15:49:59.301Z,100414.62
2024-02-13T15:53:20.736Z,100427.97
2024-02-13T15:56:23.738Z,100432.91
2024-02-13T15:59:27.487Z,100443.81
2024-02-13T16:02:30.532Z,100446.56
2024-02-13T16:05:35.465Z,100450.09
2024-02-13T16:08:38.201Z,100460.56
2024-02-13T16:11:41.242Z,100461.19
2024-02-13T16:14:43.871Z,100466.81
2024-02-13T16:17:46.931Z,100472.75
2024-02-13T16:23:11.783Z,100480.38
2024-02-13T16:31:58.590Z,100480.38
2024-02-13T16:35:02.552Z,100480.38
2024-02-13T16:38:39.598Z,100480.38
